createdAt,value
2023-11-06T00:00:51.678Z,72.04
2023-11-06T00:01:53.582Z,72.72
2023-11-06T00:02:55.337Z,72.54
2023-11-06T00:03:57.343Z,71.79
2023-11-06T00:04:59.463Z,71.59
2023-11-06T00:06:01.395Z,71.21
2023-11-06T00:07:03.131Z,70.85
2023-11-06T00:08:05.380Z,71.17
2023-11-06T00:09:08.490Z,70.94
2023-11-06T00:10:10.365Z,70.81
2023-11-06T00:11:12.256Z,70.13
2023-11-06T00:12:13.877Z,70.39
2023-11-06T00:13:15.510Z,69.44
2023-11-06T00:14:17.198Z,69.38
2023-11-06T00:15:19.034Z,69.14
2023-11-06T00:16:26.770Z,69.07
2023-11-06T00:17:30.840Z,69.52
2023-11-06T00:18:32.661Z,69.45
2023-11-06T00:19:34.761Z,69.51
2023-11-06T00:20:36.311Z,69.14
2023-11-06T00:21:37.938Z,68.76
2023-11-06T00:22:39.828Z,68.77
2023-11-06T00:23:41.984Z,69.10
2023-11-06T00:24:44.981Z,67.47
2023-11-06T00:25:47.004Z,68.09
2023-11-06T00:26:48.663Z,67.68
2023-11-06T00:27:50.281Z,67.65
2023-11-06T00:28:51.990Z,68.20
2023-11-06T00:29:53.637Z,67.62
2023-11-06T00:30:55.323Z,68.02
2023-11-06T00:31:57.150Z,67.49
2023-11-06T00:32:59.374Z,67.69
2023-11-06T00:34:01.029Z,66.90
2023-11-06T00:35:02.645Z,66.98
2023-11-06T00:36:04.970Z,68.09
2023-11-06T00:37:06.527Z,67.61
2023-11-06T00:38:08.590Z,66.93
2023-11-06T00:39:10.758Z,68.01
2023-11-06T00:40:13.867Z,67.49
2023-11-06T00:41:15.624Z,67.22
2023-11-06T00:42:17.189Z,66.47
2023-11-06T00:43:18.773Z,66.46
2023-11-06T00:44:20.709Z,67.39
2023-11-06T00:45:22.300Z,66.65
2023-11-06T00:46:23.927Z,67.46
2023-11-06T00:47:25.592Z,67.41
2023-11-06T00:48:27.291Z,67.31
2023-11-06T00:49:28.947Z,67.42
2023-11-06T00:50:30.522Z,67.29
2023-11-06T00:51:32.147Z,68.21
2023-11-06T00:52:33.870Z,67.62
2023-11-06T00:53:35.447Z,67.95
2023-11-06T00:54:37.052Z,67.93
2023-11-06T00:55:39.993Z,68.04
2023-11-06T00:56:41.590Z,68.33
2023-11-06T00:57:43.170Z,69.05
2023-11-06T00:58:44.953Z,70.17
2023-11-06T00:59:46.591Z,69.99
2023-11-06T01:00:48.777Z,70.51
2023-11-06T01:01:50.648Z,70.57
2023-11-06T01:02:52.353Z,70.86
2023-11-06T01:03:53.980Z,71.83
2023-11-06T01:04:55.755Z,71.99
2023-11-06T01:05:58.635Z,72.26
2023-11-06T01:07:00.292Z,73.87
2023-11-06T01:08:01.874Z,73.42
2023-11-06T01:09:03.923Z,73.78
2023-11-06T01:10:06.332Z,75.36
2023-11-06T01:11:09.335Z,76.88
2023-11-06T01:12:10.940Z,77.23
2023-11-06T01:13:12.770Z,76.19
2023-11-06T01:14:14.530Z,76.91
2023-11-06T01:15:16.192Z,77.22
2023-11-06T01:16:17.901Z,77.17
2023-11-06T01:17:19.520Z,77.46
2023-11-06T01:18:21.163Z,78.01
2023-11-06T01:19:22.858Z,77.87
2023-11-06T01:20:24.593Z,77.55
2023-11-06T01:21:26.326Z,77.69
2023-11-06T01:22:35.292Z,79.01
2023-11-06T01:23:43.076Z,77.86
2023-11-06T01:24:44.674Z,79.58
2023-11-06T01:25:46.499Z,79.48
2023-11-06T01:26:49.929Z,80.55
2023-11-06T01:27:51.614Z,81.04
2023-11-06T01:28:53.309Z,80.05
2023-11-06T01:29:54.969Z,80.13
2023-11-06T01:30:56.952Z,79.28
2023-11-06T01:31:58.555Z,79.98
2023-11-06T01:33:00.330Z,80.24
2023-11-06T01:34:02.005Z,80.14
2023-11-06T01:35:04.204Z,80.02
2023-11-06T01:36:06.614Z,80.24
2023-11-06T01:37:08.646Z,80.58
2023-11-06T01:38:10.361Z,81.24
2023-11-06T01:39:12.104Z,81.14
2023-11-06T01:40:13.745Z,80.96
2023-11-06T01:41:15.416Z,79.40
2023-11-06T01:42:18.510Z,79.81
2023-11-06T01:43:23.542Z,78.89
2023-11-06T01:44:25.122Z,79.36
2023-11-06T01:45:26.761Z,78.90
2023-11-06T01:46:28.370Z,79.47
2023-11-06T01:47:31.503Z,78.72
2023-11-06T01:48:33.248Z,79.02
2023-11-06T01:49:34.963Z,78.80
2023-11-06T01:50:37.829Z,78.74
2023-11-06T01:51:41.535Z,79.18
2023-11-06T01:52:44.748Z,78.25
2023-11-06T01:53:46.767Z,78.52
2023-11-06T01:54:48.847Z,78.52
2023-11-06T01:55:52.185Z,78.68
2023-11-06T01:56:55.140Z,78.47
2023-11-06T01:57:58.117Z,77.63
2023-11-06T01:59:01.093Z,77.67
2023-11-06T02:00:03.244Z,76.30
2023-11-06T02:01:15.113Z,77.00
2023-11-06T02:02:18.957Z,76.85
2023-11-06T02:03:20.568Z,76.49
2023-11-06T02:04:22.442Z,76.60
2023-11-06T02:05:24.019Z,76.96
2023-11-06T02:06:26.037Z,76.48
2023-11-06T02:07:27.823Z,76.65
2023-11-06T02:08:29.462Z,75.10
2023-11-06T02:09:31.632Z,74.77
2023-11-06T02:10:33.352Z,74.97
2023-11-06T02:11:34.998Z,75.40
2023-11-06T02:12:36.621Z,74.61
2023-11-06T02:13:39.597Z,74.76
2023-11-06T02:14:51.640Z,73.90
2023-11-06T02:15:53.339Z,73.41
2023-11-06T02:16:55.647Z,73.69
2023-11-06T02:17:57.292Z,73.92
2023-11-06T02:18:58.988Z,73.86
2023-11-06T02:20:00.784Z,73.03
2023-11-06T02:21:04.198Z,73.44
2023-11-06T02:22:08.915Z,72.76
2023-11-06T02:23:12.070Z,73.14
2023-11-06T02:24:13.873Z,72.99
2023-11-06T02:25:15.806Z,73.41
2023-11-06T02:26:17.444Z,72.59
2023-11-06T02:27:19.635Z,73.11
2023-11-06T02:28:21.563Z,73.15
2023-11-06T02:29:23.293Z,72.98
2023-11-06T02:30:25.283Z,73.49
2023-11-06T02:31:26.903Z,72.76
2023-11-06T02:32:28.517Z,73.03
2023-11-06T02:33:30.297Z,73.30
2023-11-06T02:34:32.120Z,73.22
2023-11-06T02:35:33.785Z,73.22
2023-11-06T02:36:35.684Z,73.44
2023-11-06T02:37:37.327Z,73.25
2023-11-06T02:38:40.301Z,72.96
2023-11-06T02:39:41.976Z,73.28
2023-11-06T02:40:43.663Z,72.74
2023-11-06T02:41:45.262Z,73.13
2023-11-06T02:42:47.021Z,73.09
2023-11-06T02:43:48.739Z,74.05
2023-11-06T02:44:50.521Z,73.79
2023-11-06T02:45:52.103Z,73.62
2023-11-06T02:46:53.689Z,73.88
2023-11-06T02:47:55.385Z,73.47
2023-11-06T02:48:57.291Z,73.93
2023-11-06T02:49:59.098Z,74.06
2023-11-06T02:51:00.828Z,74.18
2023-11-06T02:52:02.470Z,74.64
2023-11-06T02:53:04.094Z,73.94
2023-11-06T02:54:10.748Z,73.88
2023-11-06T02:55:12.444Z,74.22
2023-11-06T02:56:14.235Z,74.35
2023-11-06T02:57:15.872Z,73.99
2023-11-06T02:58:17.471Z,73.59
2023-11-06T02:59:19.567Z,74.43
2023-11-06T03:00:21.432Z,74.49
2023-11-06T03:01:23.203Z,74.48
2023-11-06T03:02:25.128Z,74.49
2023-11-06T03:03:26.914Z,74.76
2023-11-06T03:04:28.847Z,74.73
2023-11-06T03:05:33.266Z,75.51
2023-11-06T03:06:34.992Z,75.60
2023-11-06T03:07:36.749Z,75.46
2023-11-06T03:08:38.368Z,75.19
2023-11-06T03:09:41.450Z,75.62
2023-11-06T03:10:43.163Z,75.24
2023-11-06T03:11:45.294Z,75.81
2023-11-06T03:12:47.018Z,75.90
2023-11-06T03:13:49.140Z,75.43
2023-11-06T03:14:50.734Z,75.56
2023-11-06T03:15:52.416Z,75.51
2023-11-06T03:16:54.184Z,75.35
2023-11-06T03:17:55.865Z,75.53
2023-11-06T03:18:57.560Z,75.71
2023-11-06T03:19:59.214Z,75.44
2023-11-06T03:21:01.602Z,75.52
2023-11-06T03:22:03.238Z,75.85
2023-11-06T03:23:05.081Z,75.83
2023-11-06T03:24:07.730Z,75.34
2023-11-06T03:25:11.890Z,75.60
2023-11-06T03:26:13.526Z,75.59
2023-11-06T03:27:15.366Z,75.32
2023-11-06T03:28:17.084Z,75.54
2023-11-06T03:29:18.809Z,75.21
2023-11-06T03:30:20.501Z,75.34
2023-11-06T03:31:22.153Z,75.80
2023-11-06T03:32:23.776Z,75.83
2023-11-06T03:33:25.684Z,75.72
2023-11-06T03:34:27.364Z,75.82
2023-11-06T03:35:28.984Z,75.67
2023-11-06T03:36:30.658Z,75.73
2023-11-06T03:37:32.336Z,76.36
2023-11-06T03:38:33.963Z,76.31
2023-11-06T03:39:35.553Z,76.05
2023-11-06T03:40:38.599Z,75.63
2023-11-06T03:41:40.970Z,76.18
2023-11-06T03:42:42.900Z,76.09
2023-11-06T03:43:44.585Z,75.85
2023-11-06T03:44:46.225Z,75.99
2023-11-06T03:45:48.789Z,76.20
2023-11-06T03:46:51.412Z,76.44
2023-11-06T03:47:53.119Z,76.78
2023-11-06T03:48:54.743Z,76.64
2023-11-06T03:49:56.466Z,76.79
2023-11-06T03:50:58.100Z,77.09
2023-11-06T03:51:59.732Z,77.03
2023-11-06T03:53:01.383Z,76.89
2023-11-06T03:54:03.044Z,76.82
2023-11-06T03:55:05.782Z,76.96
2023-11-06T03:56:09.476Z,76.52
2023-11-06T03:57:11.093Z,76.81
2023-11-06T03:58:12.863Z,77.25
2023-11-06T03:59:14.475Z,77.01
2023-11-06T04:00:16.941Z,76.84
2023-11-06T04:01:18.717Z,76.66
2023-11-06T04:02:20.334Z,76.73
2023-11-06T04:03:21.967Z,76.67
2023-11-06T04:04:23.775Z,77.07
2023-11-06T04:05:25.483Z,77.30
2023-11-06T04:06:27.185Z,76.81
2023-11-06T04:07:28.753Z,76.98
2023-11-06T04:08:30.416Z,77.15
2023-11-06T04:09:32.059Z,77.29
2023-11-06T04:10:33.728Z,76.97
2023-11-06T04:11:36.960Z,77.01
2023-11-06T04:12:38.597Z,77.27
2023-11-06T04:13:40.282Z,77.06
2023-11-06T04:14:41.919Z,76.72
2023-11-06T04:15:43.804Z,77.04
2023-11-06T04:16:45.405Z,77.42
2023-11-06T04:17:47.052Z,77.27
2023-11-06T04:18:48.806Z,76.97
2023-11-06T04:19:50.454Z,77.36
2023-11-06T04:20:52.036Z,77.18
2023-11-06T04:21:53.658Z,77.15
2023-11-06T04:22:55.232Z,77.43
2023-11-06T04:23:56.873Z,77.04
2023-11-06T04:24:58.593Z,77.35
2023-11-06T04:26:00.364Z,77.72
2023-11-06T04:27:03.405Z,77.82
2023-11-06T04:28:05.086Z,77.16
2023-11-06T04:29:06.762Z,77.59
2023-11-06T04:30:09.031Z,76.96
2023-11-06T04:31:10.646Z,76.74
2023-11-06T04:32:12.369Z,76.75
2023-11-06T04:33:14.309Z,77.46
2023-11-06T04:34:16.038Z,76.90
2023-11-06T04:35:17.738Z,77.13
2023-11-06T04:36:19.357Z,77.22
2023-11-06T04:37:21.043Z,77.17
2023-11-06T04:38:22.681Z,76.97
2023-11-06T04:39:24.573Z,76.98
2023-11-06T04:40:26.226Z,77.10
2023-11-06T04:41:28.227Z,76.96
2023-11-06T04:42:31.195Z,77.29
2023-11-06T04:43:32.779Z,77.37
2023-11-06T04:44:34.472Z,77.35
2023-11-06T04:45:36.158Z,77.48
2023-11-06T04:46:37.783Z,77.50
2023-11-06T04:47:39.560Z,77.60
2023-11-06T04:48:41.223Z,77.94
2023-11-06T04:49:42.878Z,77.37
2023-11-06T04:50:44.638Z,77.18
2023-11-06T04:51:48.199Z,77.24
2023-11-06T04:52:51.062Z,77.28
2023-11-06T04:53:52.803Z,77.09
2023-11-06T04:54:54.371Z,76.84
2023-11-06T04:55:56.129Z,77.10
2023-11-06T04:56:57.797Z,76.70
2023-11-06T04:58:00.784Z,76.88
2023-11-06T04:59:02.556Z,77.07
2023-11-06T05:00:07.070Z,77.31
2023-11-06T05:01:08.894Z,76.87
2023-11-06T05:02:10.605Z,76.87
2023-11-06T05:03:12.307Z,76.10
2023-11-06T05:04:14.047Z,76.39
2023-11-06T05:05:15.888Z,76.27
2023-11-06T05:06:17.720Z,76.28
2023-11-06T05:07:19.337Z,75.91
2023-11-06T05:08:20.931Z,76.31
2023-11-06T05:09:22.765Z,76.09
2023-11-06T05:10:24.437Z,76.29
2023-11-06T05:11:26.068Z,76.06
2023-11-06T05:12:27.683Z,76.29
2023-11-06T05:13:30.600Z,76.23
2023-11-06T05:14:32.308Z,76.27
2023-11-06T05:15:33.993Z,76.22
2023-11-06T05:16:35.657Z,76.45
2023-11-06T05:17:37.460Z,75.97
2023-11-06T05:18:39.270Z,75.97
2023-11-06T05:19:41.094Z,76.12
2023-11-06T05:20:42.800Z,75.86
2023-11-06T05:21:44.429Z,76.00
2023-11-06T05:22:45.967Z,76.05
2023-11-06T05:23:47.525Z,75.94
2023-11-06T05:24:50.816Z,76.07
2023-11-06T05:25:52.527Z,75.93
2023-11-06T05:26:54.139Z,76.17
2023-11-06T05:27:55.744Z,76.21
2023-11-06T05:28:58.790Z,76.50
2023-11-06T05:30:00.487Z,75.75
2023-11-06T05:31:02.249Z,76.04
2023-11-06T05:32:04.439Z,76.20
2023-11-06T05:33:06.093Z,75.89
2023-11-06T05:34:07.923Z,75.92
2023-11-06T05:35:10.236Z,76.11
2023-11-06T05:36:13.969Z,75.93
2023-11-06T05:37:15.650Z,76.58
2023-11-06T05:38:17.330Z,76.24
2023-11-06T05:39:18.984Z,76.61
2023-11-06T05:40:20.841Z,76.48
2023-11-06T05:41:22.481Z,76.36
2023-11-06T05:42:24.112Z,76.14
2023-11-06T05:43:25.739Z,76.02
2023-11-06T05:44:28.750Z,76.18
2023-11-06T05:45:30.528Z,76.02
2023-11-06T05:46:32.297Z,75.77
2023-11-06T05:47:34.137Z,75.83
2023-11-06T05:48:35.992Z,75.66
2023-11-06T05:49:37.752Z,75.92
2023-11-06T05:50:39.421Z,75.74
2023-11-06T05:51:42.345Z,76.08
2023-11-06T05:52:44.239Z,76.29
2023-11-06T05:53:46.428Z,75.99
2023-11-06T05:54:47.997Z,76.16
2023-11-06T05:55:49.600Z,76.54
2023-11-06T05:56:51.172Z,76.83
2023-11-06T05:57:53.009Z,76.90
2023-11-06T05:58:54.841Z,76.70
2023-11-06T05:59:57.780Z,76.40
2023-11-06T06:00:59.562Z,76.29
2023-11-06T06:02:01.330Z,76.04
2023-11-06T06:03:03.213Z,76.41
2023-11-06T06:04:05.727Z,76.61
2023-11-06T06:05:08.240Z,76.13
2023-11-06T06:06:10.438Z,76.21
2023-11-06T06:07:12.056Z,76.51
2023-11-06T06:08:14.091Z,76.06
2023-11-06T06:09:15.730Z,76.24
2023-11-06T06:10:17.687Z,76.70
2023-11-06T06:11:19.350Z,76.16
2023-11-06T06:12:20.999Z,76.08
2023-11-06T06:13:22.594Z,76.18
2023-11-06T06:14:24.329Z,75.93
2023-11-06T06:15:27.201Z,76.17
2023-11-06T06:16:28.824Z,76.19
2023-11-06T06:17:30.679Z,76.08
2023-11-06T06:18:32.511Z,75.95
2023-11-06T06:19:34.324Z,75.88
2023-11-06T06:20:35.994Z,75.74
2023-11-06T06:21:37.714Z,75.17
2023-11-06T06:22:39.693Z,75.08
2023-11-06T06:23:42.051Z,75.32
2023-11-06T06:24:43.664Z,75.42
2023-11-06T06:25:45.274Z,75.72
2023-11-06T06:26:46.887Z,75.64
2023-11-06T06:27:48.485Z,75.54
2023-11-06T06:28:50.071Z,75.47
2023-11-06T06:29:51.728Z,75.63
2023-11-06T06:30:54.647Z,76.26
2023-11-06T06:31:56.274Z,75.82
2023-11-06T06:32:58.216Z,75.63
2023-11-06T06:33:59.995Z,75.22
2023-11-06T06:35:01.934Z,75.47
2023-11-06T06:36:04.052Z,75.46
2023-11-06T06:37:05.675Z,75.76
2023-11-06T06:38:07.376Z,75.44
2023-11-06T06:39:08.938Z,75.31
2023-11-06T06:40:11.249Z,75.64
2023-11-06T06:41:13.096Z,75.38
2023-11-06T06:42:14.665Z,75.39
2023-11-06T06:43:16.688Z,75.29
2023-11-06T06:44:18.429Z,75.01
2023-11-06T06:45:20.147Z,75.12
2023-11-06T06:46:23.107Z,75.37
2023-11-06T06:47:24.860Z,75.27
2023-11-06T06:48:26.583Z,75.46
2023-11-06T06:49:28.204Z,74.96
2023-11-06T06:50:29.927Z,75.28
2023-11-06T06:51:31.615Z,74.98
2023-11-06T06:52:33.215Z,75.16
2023-11-06T06:53:34.861Z,75.34
2023-11-06T06:54:36.751Z,75.17
2023-11-06T06:55:38.515Z,75.42
2023-11-06T06:56:40.165Z,75.47
2023-11-06T06:57:41.787Z,75.19
2023-11-06T06:58:43.382Z,75.27
2023-11-06T06:59:44.981Z,75.50
2023-11-06T07:00:46.751Z,75.33
2023-11-06T07:01:49.870Z,75.67
2023-11-06T07:02:53.744Z,75.26
2023-11-06T07:03:55.817Z,75.31
2023-11-06T07:04:57.675Z,75.40
2023-11-06T07:05:59.634Z,75.16
2023-11-06T07:07:01.364Z,75.36
2023-11-06T07:08:03.133Z,75.32
2023-11-06T07:09:04.922Z,75.46
2023-11-06T07:10:07.314Z,75.42
2023-11-06T07:11:08.934Z,75.98
2023-11-06T07:12:10.573Z,75.18
2023-11-06T07:13:12.256Z,75.14
2023-11-06T07:14:13.892Z,75.56
2023-11-06T07:15:15.553Z,75.38
2023-11-06T07:16:17.187Z,75.34
2023-11-06T07:17:20.170Z,75.25
2023-11-06T07:18:21.902Z,75.33
2023-11-06T07:19:23.689Z,75.69
2023-11-06T07:20:25.402Z,75.27
2023-11-06T07:21:26.997Z,75.50
2023-11-06T07:22:28.541Z,75.43
2023-11-06T07:23:30.170Z,74.86
2023-11-06T07:24:31.919Z,75.00
2023-11-06T07:25:33.622Z,74.87
2023-11-06T07:26:35.236Z,74.82
2023-11-06T07:27:37.084Z,75.05
2023-11-06T07:28:38.685Z,74.40
2023-11-06T07:29:40.312Z,74.10
2023-11-06T07:30:41.948Z,74.96
2023-11-06T07:31:43.557Z,74.50
2023-11-06T07:32:46.607Z,74.94
2023-11-06T07:33:48.504Z,74.92
2023-11-06T07:34:50.113Z,74.76
2023-11-06T07:35:51.717Z,74.49
2023-11-06T07:36:53.379Z,74.69
2023-11-06T07:37:54.966Z,74.78
2023-11-06T07:38:56.536Z,74.66
2023-11-06T07:39:58.368Z,74.73
2023-11-06T07:41:00.057Z,74.94
2023-11-06T07:42:01.708Z,74.70
2023-11-06T07:43:03.636Z,74.88
2023-11-06T07:44:05.691Z,74.67
2023-11-06T07:45:09.135Z,74.76
2023-11-06T07:46:18.036Z,74.57
2023-11-06T07:47:19.765Z,74.67
2023-11-06T07:48:22.812Z,74.47
2023-11-06T07:49:24.605Z,74.55
2023-11-06T07:50:26.298Z,74.99
2023-11-06T07:51:27.966Z,74.98
2023-11-06T07:52:29.592Z,75.24
2023-11-06T07:53:31.219Z,74.67
2023-11-06T07:54:32.955Z,74.94
2023-11-06T07:55:34.620Z,75.04
2023-11-06T07:56:37.630Z,75.09
2023-11-06T07:57:40.071Z,74.91
2023-11-06T07:58:41.697Z,75.19
2023-11-06T07:59:44.098Z,75.41
2023-11-06T08:00:50.112Z,75.19
2023-11-06T08:01:53.010Z,75.75
2023-11-06T08:02:54.600Z,75.94
2023-11-06T08:03:57.649Z,76.01
2023-11-06T08:04:59.306Z,76.17
2023-11-06T08:06:01.136Z,75.54
2023-11-06T08:07:03.668Z,75.65
2023-11-06T08:08:05.483Z,75.55
2023-11-06T08:09:07.087Z,75.45
2023-11-06T08:10:09.924Z,75.70
2023-11-06T08:11:11.613Z,75.62
2023-11-06T08:12:13.330Z,75.65
2023-11-06T08:13:15.015Z,75.47
2023-11-06T08:14:16.687Z,75.76
2023-11-06T08:15:18.566Z,75.95
2023-11-06T08:16:20.293Z,76.18
2023-11-06T08:17:21.940Z,75.88
2023-11-06T08:18:23.636Z,75.49
2023-11-06T08:19:26.632Z,76.12
2023-11-06T08:20:28.248Z,76.37
2023-11-06T08:21:29.880Z,76.55
2023-11-06T08:22:31.499Z,76.82
2023-11-06T08:23:33.126Z,77.19
2023-11-06T08:24:34.767Z,77.52
2023-11-06T08:25:36.320Z,77.34
2023-11-06T08:26:38.484Z,77.81
2023-11-06T08:27:40.165Z,77.83
2023-11-06T08:28:41.857Z,77.67
2023-11-06T08:29:43.671Z,77.16
2023-11-06T08:30:45.746Z,77.50
2023-11-06T08:31:47.335Z,76.78
2023-11-06T08:32:49.082Z,77.57
2023-11-06T08:33:50.882Z,77.17
2023-11-06T08:34:53.851Z,77.81
2023-11-06T08:35:55.504Z,77.61
2023-11-06T08:36:57.141Z,77.77
2023-11-06T08:37:58.785Z,77.66
2023-11-06T08:39:00.380Z,78.13
2023-11-06T08:40:02.007Z,77.50
2023-11-06T08:41:04.019Z,76.61
2023-11-06T08:42:06.149Z,76.86
2023-11-06T08:43:07.817Z,77.14
2023-11-06T08:44:09.489Z,76.88
2023-11-06T08:45:11.464Z,77.17
2023-11-06T08:46:13.078Z,77.23
2023-11-06T08:47:15.482Z,77.01
2023-11-06T08:48:17.259Z,76.27
2023-11-06T08:49:22.859Z,76.12
2023-11-06T08:50:28.126Z,76.19
2023-11-06T08:51:29.919Z,75.67
2023-11-06T08:52:31.493Z,75.72
2023-11-06T08:53:33.068Z,75.78
2023-11-06T08:54:34.790Z,75.81
2023-11-06T08:55:36.334Z,75.66
2023-11-06T08:56:37.931Z,75.38
2023-11-06T08:57:39.509Z,75.56
2023-11-06T08:58:41.062Z,75.25
2023-11-06T08:59:42.704Z,75.54
2023-11-06T09:00:44.979Z,74.90
2023-11-06T09:01:49.556Z,74.77
2023-11-06T09:02:51.337Z,74.09
2023-11-06T09:03:53.195Z,74.26
2023-11-06T09:04:54.774Z,73.88
2023-11-06T09:05:57.997Z,73.44
2023-11-06T09:06:59.601Z,74.13
2023-11-06T09:08:01.201Z,73.68
2023-11-06T09:09:02.781Z,73.73
2023-11-06T09:10:04.816Z,74.05
2023-11-06T09:11:07.301Z,73.54
2023-11-06T09:12:09.382Z,72.73
2023-11-06T09:13:10.985Z,72.21
2023-11-06T09:14:12.626Z,72.79
2023-11-06T09:15:14.344Z,73.46
2023-11-06T09:16:15.972Z,73.64
2023-11-06T09:17:17.610Z,72.84
2023-11-06T09:18:19.352Z,73.53
2023-11-06T09:19:21.143Z,73.82
2023-11-06T09:20:23.092Z,73.41
2023-11-06T09:21:26.038Z,73.35
2023-11-06T09:22:27.629Z,73.40
2023-11-06T09:23:29.241Z,73.49
2023-11-06T09:24:30.878Z,73.02
2023-11-06T09:25:32.525Z,73.33
2023-11-06T09:26:34.133Z,72.81
2023-11-06T09:27:36.234Z,72.12
2023-11-06T09:28:37.948Z,72.20
2023-11-06T09:29:39.630Z,72.32
2023-11-06T09:30:44.071Z,72.32
2023-11-06T09:31:45.800Z,71.41
2023-11-06T09:32:47.428Z,71.42
2023-11-06T09:33:49.093Z,71.13
2023-11-06T09:34:50.887Z,70.97
2023-11-06T09:35:52.599Z,70.73
2023-11-06T09:36:55.502Z,71.55
2023-11-06T09:37:57.097Z,71.04
2023-11-06T09:38:58.724Z,70.31
2023-11-06T09:40:00.383Z,70.42
2023-11-06T09:41:02.839Z,70.16
2023-11-06T09:42:05.118Z,69.64
2023-11-06T09:43:06.729Z,69.31
2023-11-06T09:44:08.413Z,69.30
2023-11-06T09:45:10.604Z,69.23
2023-11-06T09:46:13.285Z,69.35
2023-11-06T09:47:15.253Z,69.65
2023-11-06T09:48:19.606Z,70.56
2023-11-06T09:49:22.356Z,69.22
2023-11-06T09:50:24.534Z,69.87
2023-11-06T09:51:33.611Z,70.12
2023-11-06T09:52:37.177Z,70.00
2023-11-06T09:53:39.179Z,69.82
2023-11-06T09:54:41.787Z,70.44
2023-11-06T09:55:43.858Z,70.09
2023-11-06T09:56:46.186Z,70.53
2023-11-06T09:57:49.167Z,70.64
2023-11-06T09:58:50.961Z,70.50
2023-11-06T09:59:52.857Z,69.86
2023-11-06T10:00:54.495Z,70.88
2023-11-06T10:01:56.337Z,70.97
2023-11-06T10:02:58.150Z,70.83
2023-11-06T10:04:00.009Z,70.10
2023-11-06T10:05:01.885Z,69.81
2023-11-06T10:06:04.055Z,70.94
2023-11-06T10:07:06.188Z,71.11
2023-11-06T10:08:09.265Z,70.52
2023-11-06T10:09:21.177Z,70.41
2023-11-06T10:10:24.368Z,69.09
2023-11-06T10:11:26.325Z,69.44
2023-11-06T10:12:28.082Z,69.48
2023-11-06T10:13:29.970Z,68.95
2023-11-06T10:14:37.819Z,69.21
2023-11-06T10:15:40.520Z,68.72
2023-11-06T10:16:42.396Z,67.94
2023-11-06T10:17:44.283Z,68.69
2023-11-06T10:18:46.098Z,68.18
2023-11-06T10:19:59.654Z,67.87
2023-11-06T10:21:01.302Z,67.62
2023-11-06T10:22:13.199Z,67.70
2023-11-06T10:23:24.293Z,67.86
2023-11-06T10:24:26.130Z,67.58
2023-11-06T10:25:28.861Z,66.91
2023-11-06T10:26:31.558Z,67.11
2023-11-06T10:27:33.283Z,66.53
2023-11-06T10:28:34.942Z,66.56
2023-11-06T10:29:36.603Z,66.66
2023-11-06T10:30:46.237Z,65.89
2023-11-06T10:31:48.746Z,66.72
2023-11-06T10:32:50.569Z,66.34
2023-11-06T10:33:52.447Z,66.36
2023-11-06T10:34:54.350Z,66.84
2023-11-06T10:35:56.329Z,66.34
2023-11-06T10:37:05.247Z,66.25
2023-11-06T10:38:06.870Z,66.37
2023-11-06T10:39:10.795Z,66.39
2023-11-06T10:40:14.261Z,65.53
2023-11-06T10:41:17.524Z,66.14
2023-11-06T10:42:21.006Z,66.87
2023-11-06T10:43:22.613Z,66.47
2023-11-06T10:44:24.333Z,65.30
2023-11-06T10:45:26.109Z,64.63
2023-11-06T10:46:31.156Z,64.29
2023-11-06T10:47:34.511Z,64.92
2023-11-06T10:48:42.806Z,65.15
2023-11-06T10:49:50.826Z,65.45
2023-11-06T10:50:53.753Z,65.73
2023-11-06T10:51:57.345Z,65.91
2023-11-06T10:53:00.844Z,65.91
2023-11-06T10:54:03.004Z,66.19
2023-11-06T10:55:15.513Z,66.35
2023-11-06T10:56:25.022Z,66.31
2023-11-06T10:57:31.516Z,66.57
2023-11-06T10:58:33.841Z,67.28
2023-11-06T10:59:35.640Z,67.41
2023-11-06T11:00:38.591Z,67.23
2023-11-06T11:01:40.873Z,67.55
2023-11-06T11:02:43.515Z,67.59
2023-11-06T11:03:45.397Z,67.84
2023-11-06T11:04:51.001Z,67.96
2023-11-06T11:05:53.376Z,68.02
2023-11-06T11:06:56.446Z,67.68
2023-11-06T11:07:58.113Z,67.52
2023-11-06T11:08:59.851Z,67.20
2023-11-06T11:10:01.465Z,67.34
2023-11-06T11:11:05.261Z,67.16
2023-11-06T11:12:07.544Z,67.86
2023-11-06T11:13:09.778Z,68.41
2023-11-06T11:14:12.884Z,68.64
2023-11-06T11:15:14.571Z,68.18
2023-11-06T11:16:37.983Z,67.93
2023-11-06T11:17:40.084Z,66.24
2023-11-06T11:18:42.217Z,67.57
2023-11-06T11:19:43.972Z,66.89
2023-11-06T11:20:53.413Z,67.09
2023-11-06T11:22:06.325Z,67.99
2023-11-06T11:23:09.165Z,68.27
2023-11-06T11:24:44.431Z,67.93
2023-11-06T11:25:55.614Z,67.94
2023-11-06T11:27:10.118Z,67.72
2023-11-06T11:28:15.026Z,67.92
2023-11-06T11:29:16.682Z,67.75
2023-11-06T11:30:27.682Z,67.58
2023-11-06T11:31:33.896Z,67.30
2023-11-06T11:32:44.760Z,67.17
2023-11-06T11:33:53.203Z,66.58
2023-11-06T11:34:54.915Z,67.34
2023-11-06T11:35:56.488Z,67.36
2023-11-06T11:36:58.947Z,67.50
2023-11-06T11:38:01.462Z,67.89
2023-11-06T11:39:04.779Z,66.02
2023-11-06T11:40:07.423Z,66.35
2023-11-06T11:41:13.048Z,67.06
2023-11-06T11:42:25.883Z,66.43
2023-11-06T11:43:47.299Z,66.78
2023-11-06T11:44:52.509Z,66.79
2023-11-06T11:45:54.368Z,67.23
2023-11-06T11:46:57.539Z,67.07
2023-11-06T11:47:59.385Z,65.30
2023-11-06T11:49:01.447Z,66.40
2023-11-06T11:50:03.348Z,66.87
2023-11-06T11:51:05.654Z,67.02
2023-11-06T11:52:08.086Z,66.90
2023-11-06T11:53:09.895Z,67.42
2023-11-06T11:54:25.950Z,66.77
2023-11-06T11:55:32.359Z,68.15
2023-11-06T11:56:49.901Z,70.94
2023-11-06T11:57:54.678Z,71.21
2023-11-06T11:58:57.498Z,73.61
2023-11-06T11:59:59.263Z,74.64
2023-11-06T12:01:00.895Z,75.56
2023-11-06T12:02:03.868Z,76.13
2023-11-06T12:03:07.437Z,77.41
2023-11-06T12:04:19.623Z,77.35
2023-11-06T12:05:21.848Z,78.32
2023-11-06T12:06:31.530Z,79.46
2023-11-06T12:07:41.311Z,78.62
2023-11-06T12:08:42.916Z,79.90
2023-11-06T12:09:47.191Z,79.29
2023-11-06T12:10:50.409Z,76.88
2023-11-06T12:11:52.396Z,77.61
2023-11-06T12:12:55.367Z,78.46
2023-11-06T12:13:57.120Z,79.25
2023-11-06T12:14:59.876Z,77.81
2023-11-06T12:16:06.485Z,77.86
2023-11-06T12:17:12.595Z,77.62
2023-11-06T12:18:18.344Z,75.80
2023-11-06T12:19:20.216Z,76.33
2023-11-06T12:20:21.933Z,76.37
2023-11-06T12:21:23.546Z,76.44
2023-11-06T12:22:25.089Z,76.61
2023-11-06T12:23:30.328Z,75.41
2023-11-06T12:24:31.957Z,75.20
2023-11-06T12:25:35.437Z,76.09
2023-11-06T12:26:50.143Z,75.92
2023-11-06T12:27:51.806Z,75.69
2023-11-06T12:28:54.870Z,74.50
2023-11-06T12:29:59.829Z,74.80
2023-11-06T12:31:01.372Z,73.53
2023-11-06T12:32:18.663Z,73.57
2023-11-06T12:33:20.490Z,73.75
2023-11-06T12:34:22.418Z,73.69
2023-11-06T12:35:24.118Z,73.71
2023-11-06T12:36:26.486Z,74.10
2023-11-06T12:37:28.090Z,73.44
2023-11-06T12:38:32.910Z,73.02
2023-11-06T12:39:34.640Z,72.38
2023-11-06T12:40:42.265Z,72.78
2023-11-06T12:41:43.968Z,72.13
2023-11-06T12:42:46.026Z,72.71
2023-11-06T12:43:50.912Z,71.84
2023-11-06T12:44:54.125Z,72.06
2023-11-06T12:45:56.969Z,71.79
2023-11-06T12:47:03.914Z,70.95
2023-11-06T12:48:25.301Z,70.70
2023-11-06T12:49:27.163Z,69.97
2023-11-06T12:50:29.747Z,70.74
2023-11-06T12:51:32.009Z,71.00
2023-11-06T12:52:33.682Z,70.07
2023-11-06T12:53:36.164Z,70.55
2023-11-06T12:54:37.736Z,70.57
2023-11-06T12:55:39.401Z,68.94
2023-11-06T12:56:41.061Z,68.91
2023-11-06T12:57:42.960Z,69.47
2023-11-06T12:58:44.536Z,69.47
2023-11-06T12:59:46.953Z,69.29
2023-11-06T13:00:50.215Z,68.75
2023-11-06T13:01:51.786Z,68.64
2023-11-06T13:02:53.543Z,67.88
2023-11-06T13:03:55.404Z,68.29
2023-11-06T13:04:57.319Z,68.42
2023-11-06T13:06:00.664Z,68.99
2023-11-06T13:07:02.231Z,68.53
2023-11-06T13:08:04.261Z,68.38
2023-11-06T13:09:05.828Z,68.56
2023-11-06T13:10:08.477Z,69.47
2023-11-06T13:11:11.217Z,69.12
2023-11-06T13:12:13.777Z,69.81
2023-11-06T13:13:15.512Z,68.92
2023-11-06T13:14:17.206Z,68.02
2023-11-06T13:15:18.900Z,67.65
2023-11-06T13:16:21.913Z,67.83
2023-11-06T13:17:23.551Z,68.13
2023-11-06T13:18:25.505Z,66.89
2023-11-06T13:19:27.216Z,67.20
2023-11-06T13:20:30.146Z,66.05
2023-11-06T13:21:31.782Z,66.68
2023-11-06T13:22:33.367Z,65.32
2023-11-06T13:23:35.044Z,65.24
2023-11-06T13:24:36.782Z,65.44
2023-11-06T13:25:38.385Z,64.13
2023-11-06T13:26:40.156Z,62.94